Time;durP1;ratioP1;P1;durP2;ratioP2;P2;SDS_P1;SDS_P2;PMS_P1;PMS_P2;Temp;Humidity;BMP_temperature;BMP_pressure;BME280_temperature;BME280_humidity;BME280_pressure;Samples;Min_cycle;Max_cycle;Signal;HPM_P1;HPM_P2
2021/11/28 00:00:12;;;;;;;10.88;6.22;;;2.30;91.30;;;;;;5043534;28;20185;-73
2021/11/28 00:02:38;;;;;;;9.15;6.72;;;2.30;91.10;;;;;;5051506;28;20180;-73
2021/11/28 00:05:05;;;;;;;11.73;6.53;;;2.20;91.20;;;;;;5064995;28;20207;-73
2021/11/28 00:15:16;;;;;;;10.35;6.82;;;2.40;91.60;;;;;;5050325;28;20181;-74
2021/11/28 00:17:43;;;;;;;11.45;6.68;;;2.60;91.90;;;;;;5039004;28;20574;-74
2021/11/28 00:20:12;;;;;;;10.73;5.93;;;2.70;91.80;;;;;;5045603;28;20170;-74
2021/11/28 00:22:39;;;;;;;7.57;5.80;;;2.80;91.20;;;;;;5050659;28;20731;-74
2021/11/28 00:25:10;;;;;;;8.63;5.05;;;2.80;90.80;;;;;;5045207;28;20496;-74
2021/11/28 00:27:36;;;;;;;7.20;4.93;;;2.80;90.40;;;;;;5038734;28;20236;-74
2021/11/28 00:30:05;;;;;;;9.80;5.50;;;2.70;90.40;;;;;;5047516;28;20973;-74
2021/11/28 00:32:31;;;;;;;8.13;4.95;;;2.80;90.40;;;;;;5051431;28;20185;-74
2021/11/28 00:34:57;;;;;;;9.07;5.23;;;2.80;89.90;;;;;;5052120;28;20184;-73
2021/11/28 00:37:22;;;;;;;10.80;4.83;;;2.70;89.60;;;;;;5045587;28;20526;-73
2021/11/28 00:39:49;;;;;;;9.63;3.90;;;2.70;89.30;;;;;;5041635;28;20948;-74
2021/11/28 00:42:15;;;;;;;7.53;4.43;;;2.70;88.90;;;;;;5050736;28;20539;-75
2021/11/28 00:44:42;;;;;;;6.53;2.90;;;2.80;86.80;;;;;;5061059;28;20446;-73
2021/11/28 00:47:08;;;;;;;7.00;3.50;;;2.80;85.90;;;;;;5051271;28;20231;-73
2021/11/28 00:49:36;;;;;;;5.18;3.13;;;2.90;84.40;;;;;;5043737;28;20188;-74
2021/11/28 00:52:03;;;;;;;5.87;3.00;;;3.00;83.60;;;;;;5049454;28;20170;-75
2021/11/28 00:54:30;;;;;;;5.05;3.25;;;3.00;83.30;;;;;;5040911;28;20996;-73
2021/11/28 00:56:58;;;;;;;4.20;2.83;;;3.00;83.10;;;;;;5047724;28;20251;-74
2021/11/28 00:59:24;;;;;;;4.57;2.57;;;3.00;83.10;;;;;;5042443;28;20471;-73
2021/11/28 01:01:50;;;;;;;6.20;2.90;;;3.00;82.10;;;;;;5040056;28;21020;-75
2021/11/28 01:04:16;;;;;;;6.13;3.03;;;3.00;81.70;;;;;;5047036;28;20419;-75
2021/11/28 01:06:44;;;;;;;4.80;3.15;;;3.00;82.10;;;;;;5044895;28;20267;-75
2021/11/28 01:09:11;;;;;;;5.93;3.40;;;3.00;82.40;;;;;;5059244;28;20183;-74
2021/11/28 01:11:37;;;;;;;6.60;3.55;;;2.90;83.00;;;;;;5042097;28;20431;-75
2021/11/28 01:14:04;;;;;;;6.17;3.70;;;2.90;83.60;;;;;;5035142;28;20185;-74
2021/11/28 01:16:30;;;;;;;4.47;3.20;;;3.00;83.70;;;;;;5034396;28;20236;-73
2021/11/28 01:18:56;;;;;;;4.93;3.23;;;2.90;83.70;;;;;;5044340;28;20556;-75
2021/11/28 01:21:23;;;;;;;5.97;3.70;;;2.90;83.80;;;;;;5043366;28;20416;-74
2021/11/28 01:23:49;;;;;;;5.55;3.50;;;2.90;84.10;;;;;;5044899;28;20180;-74
2021/11/28 01:26:15;;;;;;;5.45;3.05;;;2.90;84.00;;;;;;5038326;28;20280;-75
2021/11/28 01:28:42;;;;;;;9.40;3.67;;;2.80;84.30;;;;;;5046110;28;20777;-74
2021/11/28 01:31:08;;;;;;;7.63;3.45;;;2.80;84.60;;;;;;5040587;28;20189;-73
2021/11/28 01:33:34;;;;;;;4.82;3.28;;;2.80;85.00;;;;;;5045745;28;20185;-74
2021/11/28 01:35:59;;;;;;;6.57;3.60;;;2.80;85.20;;;;;;5040065;28;20674;-74
2021/11/28 01:38:25;;;;;;;4.50;3.17;;;2.80;85.50;;;;;;5048849;28;20200;-73
2021/11/28 01:40:52;;;;;;;8.30;3.50;;;2.90;85.90;;;;;;5040433;28;20226;-74
2021/11/28 01:43:19;;;;;;;4.63;3.47;;;3.00;85.60;;;;;;5038707;28;20172;-73
2021/11/28 01:45:47;;;;;;;5.37;3.43;;;3.00;85.70;;;;;;5040418;28;20201;-73
2021/11/28 01:48:15;;;;;;;5.50;3.20;;;3.00;85.50;;;;;;5048756;28;20834;-74
2021/11/28 01:50:45;;;;;;;6.80;3.17;;;3.00;85.20;;;;;;5046700;28;20437;-73
2021/11/28 01:53:13;;;;;;;4.67;3.10;;;3.00;85.00;;;;;;5044482;28;20860;-74
2021/11/28 01:55:39;;;;;;;4.55;3.20;;;2.90;85.30;;;;;;5039952;28;20490;-74
2021/11/28 01:58:07;;;;;;;6.38;3.20;;;2.90;85.50;;;;;;5046191;28;20212;-75
2021/11/28 02:00:38;;;;;;;7.07;2.97;;;2.90;85.30;;;;;;5043744;28;20179;-73
2021/11/28 02:03:04;;;;;;;4.57;3.20;;;3.00;85.30;;;;;;5040542;28;20419;-74
2021/11/28 02:05:30;;;;;;;6.00;2.80;;;3.00;85.20;;;;;;5040760;28;20185;-75
2021/11/28 02:07:57;;;;;;;11.10;3.47;;;3.00;85.00;;;;;;5048695;28;20869;-75
2021/11/28 02:10:23;;;;;;;5.40;3.20;;;2.90;84.70;;;;;;5051021;28;20207;-74
2021/11/28 02:12:50;;;;;;;5.73;2.80;;;2.90;84.90;;;;;;5046960;28;20550;-75
2021/11/28 02:15:18;;;;;;;4.47;2.73;;;2.90;85.20;;;;;;5035559;28;20503;-74
2021/11/28 02:17:48;;;;;;;4.30;2.80;;;2.90;85.20;;;;;;5047043;28;20830;-74
2021/11/28 02:20:14;;;;;;;5.43;3.23;;;3.00;85.30;;;;;;5046919;28;20836;-74
2021/11/28 02:22:41;;;;;;;5.40;3.27;;;3.00;85.20;;;;;;5037199;28;20514;-73
2021/11/28 02:25:10;;;;;;;5.57;3.47;;;3.00;85.20;;;;;;5049596;28;20786;-76
2021/11/28 02:27:36;;;;;;;4.93;3.00;;;3.00;85.30;;;;;;5039592;28;20474;-73
2021/11/28 02:30:03;;;;;;;5.47;2.80;;;3.00;85.20;;;;;;5050049;28;20423;-75
2021/11/28 02:32:29;;;;;;;9.73;3.13;;;3.00;85.20;;;;;;5066364;28;20421;-75
2021/11/28 02:34:55;;;;;;;8.07;4.13;;;3.00;85.20;;;;;;5062752;28;20447;-75
2021/11/28 02:37:22;;;;;;;6.43;3.63;;;3.00;85.30;;;;;;5051875;28;20255;-75
2021/11/28 02:39:48;;;;;;;3.93;2.97;;;2.90;85.50;;;;;;5054555;28;20189;-76
2021/11/28 02:42:18;;;;;;;4.43;3.30;;;2.90;85.50;;;;;;5037707;28;20439;-74
2021/11/28 02:44:45;;;;;;;6.10;3.20;;;3.00;85.50;;;;;;5045264;28;20569;-76
2021/11/28 02:47:10;;;;;;;7.27;3.60;;;3.00;85.50;;;;;;5039570;28;20444;-73
2021/11/28 02:49:36;;;;;;;5.70;3.60;;;3.00;85.00;;;;;;5043983;28;20920;-72
2021/11/28 02:52:03;;;;;;;4.30;2.90;;;3.00;85.00;;;;;;5046488;28;20797;-74
2021/11/28 02:54:29;;;;;;;3.90;3.17;;;3.10;85.50;;;;;;5050983;28;20427;-74
2021/11/28 02:56:55;;;;;;;8.23;3.00;;;3.10;84.70;;;;;;5037131;28;20798;-75
2021/11/28 02:59:21;;;;;;;3.63;2.80;;;3.00;85.50;;;;;;5041105;28;20343;-76
2021/11/28 03:01:47;;;;;;;6.93;3.10;;;3.00;85.50;;;;;;5050809;28;20283;-76
2021/11/28 03:04:13;;;;;;;4.07;3.10;;;3.00;85.50;;;;;;5048352;28;20212;-75
2021/11/28 03:06:39;;;;;;;7.20;3.10;;;3.00;85.90;;;;;;5051624;28;20220;-76
2021/11/28 03:09:05;;;;;;;6.20;3.33;;;3.10;86.00;;;;;;5041107;28;20204;-76
2021/11/28 03:11:31;;;;;;;7.30;3.60;;;3.10;85.90;;;;;;5052946;28;20414;-74
2021/11/28 03:13:56;;;;;;;6.50;3.57;;;3.00;85.90;;;;;;5042151;28;20438;-77
2021/11/28 03:16:24;;;;;;;4.93;3.07;;;3.00;86.20;;;;;;5043821;28;20208;-76
2021/11/28 03:18:52;;;;;;;7.05;3.50;;;2.90;86.30;;;;;;5045963;28;20845;-74
2021/11/28 03:21:28;;;;;;;8.87;3.47;;;2.90;86.30;;;;;;5050683;28;20181;-73
2021/11/28 03:23:57;;;;;;;6.70;3.35;;;3.00;85.90;;;;;;5045695;28;20505;-74
2021/11/28 03:26:37;;;;;;;5.20;3.43;;;2.90;85.90;;;;;;5050626;28;20716;-75
2021/11/28 03:29:16;;;;;;;5.40;3.30;;;3.00;85.90;;;;;;5055583;28;20823;-74
2021/11/28 03:31:46;;;;;;;4.27;2.90;;;3.00;86.00;;;;;;5047929;28;20188;-73
2021/11/28 03:34:14;;;;;;;7.63;3.50;;;3.00;85.70;;;;;;5050314;28;20406;-75
2021/11/28 03:36:48;;;;;;;5.33;3.20;;;3.00;85.90;;;;;;5043816;28;20435;-74
2021/11/28 03:39:17;;;;;;;7.10;3.27;;;3.10;86.20;;;;;;5046099;28;21349;-75
2021/11/28 03:41:46;;;;;;;6.13;3.33;;;3.20;86.30;;;;;;5045774;28;20796;-75
2021/11/28 03:44:12;;;;;;;5.55;3.38;;;3.30;85.90;;;;;;5045211;28;20478;-75
2021/11/28 03:46:38;;;;;;;5.30;3.07;;;3.30;85.20;;;;;;5037330;28;20534;-76
2021/11/28 03:49:04;;;;;;;5.57;2.77;;;3.30;84.70;;;;;;5047364;28;20485;-74
2021/11/28 03:51:30;;;;;;;4.45;2.38;;;3.10;84.40;;;;;;5048676;28;20192;-75
2021/11/28 03:53:56;;;;;;;4.40;3.17;;;3.20;85.20;;;;;;5047784;28;20220;-75
2021/11/28 03:56:23;;;;;;;6.83;2.87;;;3.30;85.20;;;;;;5051813;28;20443;-74
2021/11/28 03:58:49;;;;;;;6.23;2.93;;;3.30;85.20;;;;;;5043101;28;21012;-74
2021/11/28 04:01:16;;;;;;;4.10;2.70;;;3.40;85.50;;;;;;5039804;28;20446;-73
2021/11/28 04:03:43;;;;;;;3.90;2.57;;;3.50;85.20;;;;;;5056699;28;20419;-74
2021/11/28 04:06:09;;;;;;;5.83;2.60;;;3.50;84.90;;;;;;5048399;28;20447;-75
2021/11/28 04:08:36;;;;;;;6.70;3.20;;;3.50;85.20;;;;;;5047449;28;20457;-74
2021/11/28 04:11:02;;;;;;;4.57;2.60;;;3.50;85.00;;;;;;5045493;28;20423;-74
2021/11/28 04:13:28;;;;;;;6.40;3.20;;;3.50;84.70;;;;;;5047924;28;20479;-75
2021/11/28 04:15:53;;;;;;;7.60;3.07;;;3.60;85.20;;;;;;5047080;28;20443;-75
2021/11/28 04:18:19;;;;;;;3.73;2.70;;;3.60;84.70;;;;;;5040968;28;20534;-73
2021/11/28 04:20:46;;;;;;;3.23;2.50;;;3.70;83.10;;;;;;5042271;28;20188;-74
2021/11/28 04:23:12;;;;;;;5.33;2.63;;;3.60;83.00;;;;;;5043186;28;20185;-73
2021/11/28 04:25:38;;;;;;;8.40;3.17;;;3.60;83.40;;;;;;5045840;28;20505;-74
2021/11/28 04:28:05;;;;;;;5.93;2.97;;;3.60;83.40;;;;;;5046593;28;20432;-73
2021/11/28 04:30:31;;;;;;;5.47;2.80;;;3.50;83.80;;;;;;5049358;28;20448;-74
2021/11/28 04:32:57;;;;;;;6.53;2.83;;;3.50;84.00;;;;;;5043309;28;20438;-75
2021/11/28 04:35:23;;;;;;;5.90;3.07;;;3.50;84.00;;;;;;5040053;28;20434;-74
2021/11/28 04:37:50;;;;;;;7.10;2.53;;;3.40;84.10;;;;;;5050847;28;20547;-74
2021/11/28 04:40:16;;;;;;;6.13;2.83;;;3.40;84.60;;;;;;5041000;28;20226;-73
2021/11/28 04:42:42;;;;;;;4.70;3.10;;;3.40;84.30;;;;;;5052957;28;20423;-74
2021/11/28 04:45:09;;;;;;;3.53;2.93;;;3.40;84.60;;;;;;5038957;28;20961;-73
2021/11/28 04:47:35;;;;;;;5.83;3.10;;;3.30;84.90;;;;;;5042895;28;20255;-74
2021/11/28 04:50:03;;;;;;;6.73;3.20;;;3.20;85.20;;;;;;5041758;28;20602;-75
2021/11/28 04:52:28;;;;;;;5.47;2.93;;;3.20;85.70;;;;;;5048264;28;20463;-76
2021/11/28 04:54:54;;;;;;;4.50;2.97;;;3.20;86.20;;;;;;5047691;28;20439;-76
2021/11/28 04:57:20;;;;;;;6.50;3.03;;;3.20;86.30;;;;;;5042273;28;20200;-74
2021/11/28 04:59:47;;;;;;;6.07;3.60;;;3.10;86.60;;;;;;5046927;28;20473;-74
2021/11/28 05:02:13;;;;;;;5.35;2.78;;;3.00;87.30;;;;;;5044797;28;20431;-75
2021/11/28 05:04:39;;;;;;;6.77;2.60;;;3.10;87.70;;;;;;5047287;28;20249;-76
2021/11/28 05:07:05;;;;;;;6.67;3.20;;;3.00;87.70;;;;;;5045286;28;20464;-75
2021/11/28 05:09:31;;;;;;;5.63;3.17;;;3.00;87.80;;;;;;5047874;28;20185;-75
2021/11/28 05:11:56;;;;;;;5.50;3.30;;;3.00;88.10;;;;;;5038240;28;20193;-75
2021/11/28 05:14:22;;;;;;;5.33;2.50;;;3.00;88.30;;;;;;5038224;28;20267;-76
2021/11/28 05:16:48;;;;;;;5.37;2.90;;;2.90;88.30;;;;;;5031514;28;20217;-76
2021/11/28 05:19:14;;;;;;;7.93;3.00;;;2.90;88.60;;;;;;5043035;28;20210;-75
2021/11/28 05:21:41;;;;;;;4.35;2.90;;;3.00;89.20;;;;;;5045910;28;20419;-75
2021/11/28 05:24:07;;;;;;;6.17;3.20;;;3.10;89.20;;;;;;5054587;28;20659;-73
2021/11/28 05:26:33;;;;;;;9.03;3.30;;;3.20;88.70;;;;;;5038915;28;20432;-74
2021/11/28 05:28:58;;;;;;;4.53;2.90;;;3.20;88.90;;;;;;5049478;28;20180;-74
2021/11/28 05:31:24;;;;;;;5.07;3.37;;;3.20;88.70;;;;;;5050905;28;20180;-75
2021/11/28 05:33:50;;;;;;;4.70;3.23;;;3.10;88.60;;;;;;5038487;28;20220;-74
2021/11/28 05:36:17;;;;;;;5.83;3.30;;;3.10;88.90;;;;;;5040301;28;20204;-75
2021/11/28 05:38:43;;;;;;;5.47;3.33;;;3.20;89.20;;;;;;5045898;28;20998;-75
2021/11/28 05:41:09;;;;;;;4.63;3.20;;;3.20;89.20;;;;;;5041034;28;20415;-77
2021/11/28 05:43:40;;;;;;;4.60;3.00;;;3.30;88.70;;;;;;5047310;28;20735;-75
2021/11/28 05:46:06;;;;;;;5.75;2.90;;;3.30;88.40;;;;;;5030748;28;20463;-75
2021/11/28 05:48:32;;;;;;;4.53;3.00;;;3.30;88.60;;;;;;5048619;28;20177;-74
2021/11/28 05:50:58;;;;;;;5.60;3.03;;;3.30;88.60;;;;;;5046850;28;20181;-73
2021/11/28 05:53:25;;;;;;;4.25;3.30;;;3.30;88.70;;;;;;5053697;28;20437;-74
2021/11/28 05:55:51;;;;;;;6.43;2.90;;;3.20;88.60;;;;;;5049373;28;20212;-74
2021/11/28 05:58:17;;;;;;;6.03;3.50;;;3.20;88.70;;;;;;5039214;28;20478;-74
2021/11/28 06:00:43;;;;;;;6.03;3.27;;;3.20;88.60;;;;;;5031805;28;20501;-75
2021/11/28 06:03:09;;;;;;;7.90;3.97;;;3.20;88.70;;;;;;5032323;28;20432;-74
2021/11/28 06:05:35;;;;;;;4.17;2.90;;;3.20;88.70;;;;;;5031641;28;20200;-74
2021/11/28 06:08:01;;;;;;;4.80;3.00;;;3.20;88.70;;;;;;5040315;28;20580;-75
2021/11/28 06:10:26;;;;;;;6.63;2.63;;;3.30;88.60;;;;;;5046587;28;20518;-75
2021/11/28 06:12:52;;;;;;;4.57;2.97;;;3.30;88.10;;;;;;5041821;28;20433;-74
2021/11/28 06:15:18;;;;;;;7.60;2.93;;;3.20;88.10;;;;;;5041280;28;20247;-75
2021/11/28 06:17:44;;;;;;;4.17;2.90;;;3.00;88.70;;;;;;5036521;28;20462;-75
2021/11/28 06:20:10;;;;;;;6.43;3.23;;;3.00;89.20;;;;;;5049376;28;20192;-75
2021/11/28 06:22:37;;;;;;;5.20;3.17;;;2.90;89.60;;;;;;5036796;28;20192;-75
2021/11/28 06:25:04;;;;;;;5.00;2.93;;;3.00;89.90;;;;;;5038034;28;20848;-74
2021/11/28 06:27:30;;;;;;;7.00;2.92;;;2.90;89.90;;;;;;5053290;28;20537;-74
2021/11/28 06:29:56;;;;;;;5.90;3.10;;;2.90;90.10;;;;;;5043478;28;20308;-74
2021/11/28 06:32:22;;;;;;;5.15;3.13;;;2.90;90.20;;;;;;5039636;28;20183;-75
2021/11/28 06:34:47;;;;;;;4.20;2.83;;;2.90;90.30;;;;;;5051166;28;20196;-75
2021/11/28 06:37:13;;;;;;;4.67;2.80;;;3.00;90.20;;;;;;5046953;28;20276;-75
2021/11/28 06:39:39;;;;;;;4.37;3.10;;;3.00;90.10;;;;;;5046235;28;20266;-75
2021/11/28 06:42:05;;;;;;;7.00;2.80;;;2.90;90.20;;;;;;5039925;28;20208;-75
2021/11/28 06:44:31;;;;;;;8.00;2.60;;;3.00;90.50;;;;;;5049244;28;20263;-74
2021/11/28 06:46:56;;;;;;;6.40;3.20;;;3.10;90.40;;;;;;5045502;28;20641;-75
2021/11/28 06:49:26;;;;;;;4.17;2.53;;;3.20;90.20;;;;;;5046035;28;20423;-75
2021/11/28 06:51:55;;;;;;;9.63;3.13;;;3.30;90.10;;;;;;5051360;28;20729;-74
2021/11/28 06:54:22;;;;;;;3.35;2.75;;;3.30;90.00;;;;;;5052668;28;20429;-74
2021/11/28 06:56:48;;;;;;;6.60;3.00;;;3.40;89.90;;;;;;5034836;28;21022;-74
2021/11/28 06:59:14;;;;;;;3.80;2.93;;;3.40;89.50;;;;;;5039915;28;20840;-74
2021/11/28 07:01:40;;;;;;;4.53;2.80;;;3.40;89.30;;;;;;5049219;28;20430;-75
2021/11/28 07:04:05;;;;;;;6.17;2.90;;;3.40;89.20;;;;;;5033971;28;20177;-74
2021/11/28 07:06:31;;;;;;;8.27;3.10;;;3.40;89.20;;;;;;5051435;28;20686;-75
2021/11/28 07:08:57;;;;;;;4.07;3.03;;;3.30;89.30;;;;;;5034800;28;20193;-74
2021/11/28 07:11:22;;;;;;;5.33;2.80;;;3.40;89.50;;;;;;5045758;28;20189;-74
2021/11/28 07:13:50;;;;;;;4.90;2.77;;;3.40;89.60;;;;;;5038581;28;20208;-74
2021/11/28 07:16:16;;;;;;;4.50;2.90;;;3.40;89.50;;;;;;5040083;28;20255;-74
2021/11/28 07:18:43;;;;;;;7.60;3.63;;;3.40;89.30;;;;;;5047132;28;20470;-75
2021/11/28 07:21:10;;;;;;;4.00;2.60;;;3.50;88.90;;;;;;5055474;28;20411;-74
2021/11/28 07:23:36;;;;;;;5.67;2.33;;;3.50;88.40;;;;;;5045423;28;20424;-74
2021/11/28 07:26:02;;;;;;;3.43;2.27;;;3.40;87.70;;;;;;5053975;28;20438;-74
2021/11/28 07:28:28;;;;;;;4.17;2.63;;;3.30;86.60;;;;;;5043259;28;20713;-74
2021/11/28 07:30:54;;;;;;;8.37;3.23;;;3.20;86.60;;;;;;5038573;28;20986;-75
2021/11/28 07:33:20;;;;;;;4.17;3.10;;;3.20;87.10;;;;;;5048038;28;20654;-73
2021/11/28 07:35:45;;;;;;;7.37;3.33;;;3.10;87.70;;;;;;5038895;28;20204;-74
2021/11/28 07:38:11;;;;;;;6.60;2.73;;;3.10;88.40;;;;;;5046672;28;20722;-74
2021/11/28 07:40:37;;;;;;;6.93;3.23;;;3.20;88.60;;;;;;5044316;28;20190;-75
2021/11/28 07:43:03;;;;;;;4.00;2.60;;;3.30;88.70;;;;;;5052170;28;20614;-75
2021/11/28 07:45:29;;;;;;;3.13;2.73;;;3.30;88.10;;;;;;5043586;28;20470;-75
2021/11/28 07:47:55;;;;;;;9.97;3.30;;;3.30;88.30;;;;;;5042738;28;20857;-76
2021/11/28 07:50:21;;;;;;;8.00;4.67;;;3.40;88.40;;;;;;5050729;28;20234;-76
2021/11/28 07:52:46;;;;;;;7.67;4.30;;;3.50;88.30;;;;;;5038321;28;20431;-76
2021/11/28 07:55:12;;;;;;;7.53;3.50;;;3.60;88.00;;;;;;5036889;28;20999;-74
2021/11/28 07:57:38;;;;;;;5.90;3.23;;;3.60;87.30;;;;;;5043948;28;20205;-75
2021/11/28 08:00:05;;;;;;;5.50;3.30;;;3.70;86.80;;;;;;5044133;28;20181;-75
2021/11/28 08:02:31;;;;;;;6.30;2.93;;;3.70;86.50;;;;;;5035885;28;20185;-75
2021/11/28 08:04:57;;;;;;;6.33;3.20;;;3.70;86.30;;;;;;5045982;28;20431;-75
2021/11/28 08:07:23;;;;;;;5.33;3.03;;;3.80;86.50;;;;;;5044601;28;20212;-75
2021/11/28 08:09:48;;;;;;;5.23;3.37;;;3.80;86.50;;;;;;5038200;28;20188;-75
2021/11/28 08:12:15;;;;;;;4.07;2.97;;;3.80;86.60;;;;;;5043298;28;20560;-75
2021/11/28 08:14:41;;;;;;;6.47;3.10;;;3.80;86.80;;;;;;5050251;28;20429;-75
2021/11/28 08:17:06;;;;;;;10.80;3.83;;;3.90;85.90;;;;;;5037675;28;20518;-75
2021/11/28 08:19:32;;;;;;;4.13;2.77;;;3.90;85.30;;;;;;5043976;28;20466;-74
2021/11/28 08:21:59;;;;;;;5.73;3.47;;;3.80;85.60;;;;;;5038572;28;20173;-75
2021/11/28 08:24:25;;;;;;;7.07;3.80;;;3.70;85.60;;;;;;5040590;28;20268;-74
2021/11/28 08:26:51;;;;;;;5.40;3.20;;;3.60;86.20;;;;;;5039410;28;20507;-77
2021/11/28 08:29:17;;;;;;;5.67;3.30;;;3.70;86.50;;;;;;5050113;28;20903;-75
2021/11/28 08:31:43;;;;;;;6.70;3.70;;;3.70;86.30;;;;;;5051579;28;20189;-73
2021/11/28 08:34:09;;;;;;;5.50;3.90;;;3.60;86.20;;;;;;5036937;28;20424;-74
2021/11/28 08:36:34;;;;;;;10.13;3.70;;;3.70;86.60;;;;;;5036666;28;20443;-76
2021/11/28 08:39:00;;;;;;;5.07;3.23;;;3.60;86.30;;;;;;5049564;28;21053;-75
2021/11/28 08:41:27;;;;;;;6.50;3.70;;;3.50;86.20;;;;;;5043376;28;20177;-75
2021/11/28 08:43:55;;;;;;;7.57;3.57;;;3.60;86.50;;;;;;5035399;28;20835;-75
2021/11/28 08:46:21;;;;;;;6.60;3.90;;;3.70;86.50;;;;;;5033000;28;20450;-76
2021/11/28 08:48:47;;;;;;;7.00;3.83;;;3.50;86.50;;;;;;5039105;28;20423;-75
2021/11/28 08:51:14;;;;;;;8.57;4.20;;;3.60;86.90;;;;;;5046787;28;20946;-76
2021/11/28 08:53:40;;;;;;;7.32;3.85;;;3.70;87.00;;;;;;5048717;28;20442;-75
2021/11/28 08:56:07;;;;;;;5.73;3.40;;;3.70;86.90;;;;;;5045580;28;20201;-75
2021/11/28 08:58:33;;;;;;;5.20;3.50;;;3.50;86.60;;;;;;5047678;28;20550;-76
2021/11/28 09:00:59;;;;;;;5.00;3.63;;;3.60;86.60;;;;;;5040916;28;20586;-74
2021/11/28 09:03:25;;;;;;;6.00;3.60;;;3.60;86.50;;;;;;5040693;28;20496;-75
2021/11/28 09:05:51;;;;;;;8.20;4.43;;;3.70;86.60;;;;;;5037460;28;20535;-75
2021/11/28 09:08:17;;;;;;;6.77;3.90;;;3.70;86.80;;;;;;5047837;28;20192;-75
2021/11/28 09:10:44;;;;;;;5.80;3.50;;;3.70;86.60;;;;;;5045346;28;20434;-76
2021/11/28 09:13:11;;;;;;;4.67;3.57;;;3.80;86.50;;;;;;5047400;28;20457;-75
2021/11/28 09:15:37;;;;;;;4.10;3.20;;;3.80;85.50;;;;;;5039371;28;20486;-75
2021/11/28 09:18:09;;;;;;;8.03;3.90;;;3.80;85.20;;;;;;5043249;28;20521;-76
2021/11/28 09:20:37;;;;;;;8.57;4.10;;;3.90;85.50;;;;;;5044701;28;20423;-75
2021/11/28 09:25:30;;;;;;;5.63;3.37;;;3.90;85.30;;;;;;5039409;28;20427;-75
2021/11/28 09:28:00;;;;;;;5.53;3.73;;;4.00;85.30;;;;;;5044596;28;20177;-76
2021/11/28 09:30:28;;;;;;;6.50;4.13;;;4.10;85.30;;;;;;5042026;28;20507;-75
2021/11/28 09:32:54;;;;;;;6.23;3.87;;;4.30;84.60;;;;;;5046120;28;20415;-75
2021/11/28 09:35:20;;;;;;;6.80;4.67;;;4.30;84.40;;;;;;5053295;28;20624;-76
2021/11/28 09:37:46;;;;;;;9.30;3.97;;;4.40;84.30;;;;;;5044554;28;20463;-76
2021/11/28 09:40:12;;;;;;;7.47;3.83;;;4.50;83.80;;;;;;5042427;28;20957;-75
2021/11/28 09:42:51;;;;;;;7.77;4.23;;;4.50;83.40;;;;;;5047823;28;20895;-74
2021/11/28 09:45:18;;;;;;;7.60;3.40;;;4.60;83.00;;;;;;5032145;28;20888;-76
2021/11/28 09:47:45;;;;;;;7.80;3.40;;;4.60;82.80;;;;;;5037402;28;20420;-75
2021/11/28 09:50:12;;;;;;;5.90;3.73;;;4.70;82.20;;;;;;5047687;28;20904;-75
2021/11/28 09:52:38;;;;;;;6.73;3.27;;;4.70;81.70;;;;;;5039621;28;20423;-76
2021/11/28 09:55:07;;;;;;;5.53;3.60;;;4.60;81.20;;;;;;5036041;28;20523;-76
2021/11/28 09:57:33;;;;;;;7.10;4.07;;;4.50;81.70;;;;;;5033427;28;20530;-76
2021/11/28 09:59:59;;;;;;;4.77;3.03;;;4.50;82.10;;;;;;5048787;28;21145;-75
2021/11/28 10:02:36;;;;;;;6.20;4.07;;;4.40;82.40;;;;;;5038739;28;20435;-74
2021/11/28 10:05:13;;;;;;;7.40;3.67;;;4.40;82.50;;;;;;5045044;28;20407;-76
2021/11/28 10:07:43;;;;;;;5.70;3.57;;;4.40;82.70;;;;;;5038343;28;20740;-75
2021/11/28 10:10:11;;;;;;;6.97;4.13;;;4.20;83.10;;;;;;5035856;28;20424;-76
2021/11/28 10:12:42;;;;;;;6.20;3.77;;;4.20;83.60;;;;;;5047331;28;20419;-76
2021/11/28 10:15:12;;;;;;;4.67;3.20;;;4.20;83.80;;;;;;5043027;28;20502;-74
2021/11/28 10:17:38;;;;;;;7.00;4.10;;;4.20;84.10;;;;;;5049275;28;20451;-75
2021/11/28 10:20:08;;;;;;;6.10;4.63;;;4.30;84.00;;;;;;5051229;28;20490;-75
2021/11/28 10:22:34;;;;;;;5.63;4.63;;;4.40;83.30;;;;;;5053364;28;20466;-75
2021/11/28 10:25:05;;;;;;;10.83;3.97;;;4.30;83.30;;;;;;5044488;28;20603;-76
2021/11/28 10:27:52;;;;;;;6.87;3.77;;;4.40;82.80;;;;;;5042462;28;20777;-75
2021/11/28 10:30:32;;;;;;;6.97;3.40;;;4.40;83.10;;;;;;5039280;28;20446;-74
2021/11/28 10:33:17;;;;;;;4.37;3.40;;;4.30;83.00;;;;;;5042678;28;20415;-76
2021/11/28 10:36:03;;;;;;;4.93;3.13;;;4.30;82.70;;;;;;5036376;28;20538;-75
2021/11/28 10:38:40;;;;;;;7.33;4.00;;;4.20;82.80;;;;;;5040265;28;20481;-76
2021/11/28 10:41:26;;;;;;;4.17;3.30;;;4.20;83.30;;;;;;5042821;28;20925;-73
2021/11/28 10:43:52;;;;;;;4.90;3.53;;;4.30;83.60;;;;;;5038137;28;20509;-76
2021/11/28 10:46:28;;;;;;;8.07;3.60;;;4.30;83.10;;;;;;5042580;28;20463;-75
2021/11/28 10:49:16;;;;;;;5.53;3.43;;;4.30;82.40;;;;;;5035849;28;20486;-75
2021/11/28 10:51:50;;;;;;;6.43;3.30;;;4.30;82.50;;;;;;5046476;28;20415;-75
2021/11/28 10:54:32;;;;;;;6.73;3.70;;;4.30;81.90;;;;;;5035521;28;20422;-74
2021/11/28 10:57:07;;;;;;;4.50;3.23;;;4.20;82.10;;;;;;5037768;28;20419;-74
2021/11/28 10:59:34;;;;;;;5.70;3.00;;;4.20;82.40;;;;;;5050412;28;20466;-74
2021/11/28 11:02:01;;;;;;;5.23;3.37;;;4.20;82.70;;;;;;5047631;28;20427;-74
2021/11/28 11:04:31;;;;;;;6.10;2.80;;;4.20;82.10;;;;;;5042233;28;20427;-74
2021/11/28 11:07:09;;;;;;;3.60;2.57;;;4.20;82.40;;;;;;5038556;28;20482;-75
2021/11/28 11:09:44;;;;;;;4.40;2.80;;;4.30;82.40;;;;;;5045199;28;20438;-75
2021/11/28 11:12:33;;;;;;;4.47;3.30;;;4.40;82.40;;;;;;5048440;28;20477;-76
2021/11/28 11:14:59;;;;;;;8.57;3.27;;;4.50;81.40;;;;;;5043914;28;20430;-75
2021/11/28 11:17:31;;;;;;;6.23;2.70;;;4.60;81.20;;;;;;5050536;28;20508;-75
2021/11/28 11:19:58;;;;;;;5.07;3.00;;;4.70;80.60;;;;;;5049254;28;20925;-77
2021/11/28 11:22:26;;;;;;;2.90;2.43;;;4.80;80.50;;;;;;5048607;28;20429;-77
2021/11/28 11:24:58;;;;;;;8.03;3.07;;;4.60;79.70;;;;;;5040744;28;20524;-77
2021/11/28 11:27:33;;;;;;;4.50;2.77;;;4.60;80.00;;;;;;5045833;28;20447;-75
2021/11/28 11:30:07;;;;;;;4.83;3.20;;;4.70;79.20;;;;;;5050747;28;20427;-77
2021/11/28 11:33:02;;;;;;;3.73;2.50;;;4.70;78.70;;;;;;5046150;28;20773;-77
2021/11/28 11:35:30;;;;;;;7.10;3.23;;;4.80;78.90;;;;;;5052392;28;20960;-75
2021/11/28 11:38:02;;;;;;;3.27;2.53;;;4.90;78.10;;;;;;5044562;28;20473;-76
2021/11/28 11:40:28;;;;;;;5.83;3.20;;;4.90;77.80;;;;;;5050411;28;20418;-76
2021/11/28 11:42:54;;;;;;;6.13;3.23;;;4.90;78.10;;;;;;5050296;28;20431;-75
2021/11/28 11:45:35;;;;;;;4.93;2.70;;;5.00;78.40;;;;;;5044570;28;20510;-77
2021/11/28 11:48:00;;;;;;;3.57;2.50;;;5.20;78.10;;;;;;5035135;28;20435;-75
2021/11/28 11:50:28;;;;;;;3.90;2.50;;;5.20;77.30;;;;;;5044341;28;20415;-74
2021/11/28 11:52:54;;;;;;;7.87;3.70;;;5.30;76.80;;;;;;5052984;28;20188;-76
2021/11/28 11:55:27;;;;;;;11.00;4.83;;;5.50;77.30;;;;;;5045403;28;20459;-76
2021/11/28 11:58:16;;;;;;;7.80;4.33;;;5.60;77.30;;;;;;5040758;28;20469;-76
2021/11/28 12:01:11;;;;;;;4.83;2.90;;;5.60;76.70;;;;;;5050578;28;20498;-75
2021/11/28 12:03:50;;;;;;;5.50;3.70;;;5.40;75.70;;;;;;5040678;28;20406;-75
2021/11/28 12:06:15;;;;;;;16.33;7.33;;;5.30;76.80;;;;;;5050244;28;21152;-75
2021/11/28 12:08:49;;;;;;;11.00;6.63;;;5.30;80.00;;;;;;5051006;28;20430;-75
2021/11/28 12:11:16;;;;;;;13.27;6.87;;;5.20;82.20;;;;;;5042084;28;20191;-75
2021/11/28 12:13:45;;;;;;;7.67;6.13;;;5.20;82.80;;;;;;5040672;28;21143;-75
2021/11/28 12:16:11;;;;;;;8.63;6.53;;;5.30;83.10;;;;;;5047732;28;20538;-75
2021/11/28 12:18:43;;;;;;;11.60;6.50;;;5.20;82.20;;;;;;5046135;28;20597;-76
2021/11/28 12:21:14;;;;;;;12.83;6.40;;;5.20;81.80;;;;;;5050227;28;21087;-75
2021/11/28 12:23:43;;;;;;;9.17;5.03;;;5.20;82.40;;;;;;5045920;28;20788;-75
2021/11/28 12:26:43;;;;;;;12.03;5.03;;;5.20;80.60;;;;;;5046239;28;20516;-74
2021/11/28 12:29:08;;;;;;;7.10;5.70;;;5.20;80.50;;;;;;4997389;28;20435;-75
2021/11/28 12:31:38;;;;;;;8.80;5.43;;;5.20;80.30;;;;;;5009956;28;20437;-75
2021/11/28 12:34:07;;;;;;;14.30;7.30;;;5.20;80.50;;;;;;5009652;28;20216;-75
2021/11/28 12:36:36;;;;;;;11.67;7.00;;;5.20;81.10;;;;;;5001399;28;20536;-74
2021/11/28 12:39:23;;;;;;;12.50;7.20;;;5.20;82.40;;;;;;5008789;28;20483;-77
2021/11/28 12:41:52;;;;;;;11.33;6.97;;;5.20;82.50;;;;;;4999896;28;20512;-75
2021/11/28 12:44:24;;;;;;;9.50;6.07;;;5.20;82.20;;;;;;5001026;28;20519;-75
2021/11/28 12:46:55;;;;;;;14.57;8.20;;;5.10;82.50;;;;;;4997980;28;20438;-75
2021/11/28 12:49:30;;;;;;;14.07;8.33;;;5.10;82.40;;;;;;5000821;28;20428;-75
2021/11/28 12:52:15;;;;;;;13.97;7.40;;;5.10;82.40;;;;;;4996160;28;20850;-75
2021/11/28 12:55:08;;;;;;;10.33;6.10;;;5.20;82.70;;;;;;5010682;28;20931;-77
2021/11/28 12:57:37;;;;;;;11.90;7.13;;;5.20;81.90;;;;;;5010388;28;20464;-77
2021/11/28 13:00:24;;;;;;;11.83;7.20;;;5.10;81.70;;;;;;4983305;28;20434;-78
2021/11/28 13:02:57;;;;;;;14.43;6.87;;;5.10;82.10;;;;;;4985846;28;21262;-78
2021/11/28 13:05:29;;;;;;;17.10;6.63;;;5.10;82.40;;;;;;5038296;28;20423;-78
2021/11/28 13:08:21;;;;;;;11.07;7.73;;;5.10;82.50;;;;;;5045329;28;20450;-77
2021/11/28 13:10:48;;;;;;;13.13;8.17;;;5.00;82.50;;;;;;5044743;28;20434;-79